createdAt,value
2019-01-27T00:00:41.569Z,98818.70
2019-01-27T00:03:11.738Z,98802.95
2019-01-27T00:05:40.985Z,98794.03
2019-01-27T00:08:13.713Z,98803.71
2019-01-27T00:10:41.253Z,98793.02
2019-01-27T00:13:10.499Z,98803.45
2019-01-27T00:15:39.745Z,98794.75
2019-01-27T00:18:09.022Z,98791.65
2019-01-27T00:20:38.388Z,98779.08
2019-01-27T00:23:07.634Z,98776.38
2019-01-27T00:25:36.881Z,98775.61
2019-01-27T00:28:07.113Z,98771.56
2019-01-27T00:30:36.420Z,98760.09
2019-01-27T00:33:05.661Z,98752.47
2019-01-27T00:35:34.910Z,98750.30
2019-01-27T00:38:04.280Z,98743.84
2019-01-27T00:40:34.583Z,98734.52
2019-01-27T00:43:03.817Z,98732.86
2019-01-27T00:45:33.047Z,98726.41
2019-01-27T00:48:02.268Z,98723.19
2019-01-27T00:50:31.525Z,98717.70
2019-01-27T00:53:01.749Z,98711.05
2019-01-27T00:55:32.097Z,98698.01
2019-01-27T00:58:01.334Z,98698.45
2019-01-27T01:00:30.593Z,98693.58
2019-01-27T01:02:59.910Z,98690.47
2019-01-27T01:05:29.151Z,98681.56
2019-01-27T01:07:58.385Z,98672.42
2019-01-27T01:10:27.692Z,98667.91
2019-01-27T01:12:56.942Z,98672.62
2019-01-27T01:15:26.187Z,98659.10
2019-01-27T01:17:56.380Z,98664.45
2019-01-27T01:20:25.667Z,98657.09
2019-01-27T01:22:54.990Z,98648.77
2019-01-27T01:25:24.870Z,98648.48
2019-01-27T01:27:54.118Z,98643.27
2019-01-27T01:30:26.142Z,98640.02
2019-01-27T01:32:55.440Z,98635.98
2019-01-27T01:35:24.678Z,98641.25
2019-01-27T01:37:53.920Z,98627.30
2019-01-27T01:40:23.282Z,98622.66
2019-01-27T01:42:52.582Z,98618.08
2019-01-27T01:45:26.906Z,98604.11
2019-01-27T01:47:56.224Z,98599.95
2019-01-27T01:50:25.469Z,98596.16
2019-01-27T01:52:55.980Z,98588.16
2019-01-27T01:55:25.231Z,98578.01
2019-01-27T01:57:56.460Z,98580.33
2019-01-27T02:00:27.452Z,98576.45
2019-01-27T02:02:56.685Z,98572.92
2019-01-27T02:05:25.924Z,98573.52
2019-01-27T02:07:55.310Z,98560.48
2019-01-27T02:10:26.616Z,98563.62
2019-01-27T02:13:02.506Z,98549.48
2019-01-27T02:15:34.907Z,98538.77
2019-01-27T02:18:04.154Z,98532.37
2019-01-27T02:20:33.399Z,98528.67
2019-01-27T02:23:02.646Z,98529.16
2019-01-27T02:25:31.890Z,98516.09
2019-01-27T02:28:01.126Z,98513.70
2019-01-27T02:30:30.436Z,98516.12
2019-01-27T02:32:59.682Z,98505.23
2019-01-27T02:35:28.926Z,98503.06
2019-01-27T02:37:58.165Z,98485.19
2019-01-27T02:40:28.386Z,98486.23
2019-01-27T02:42:57.634Z,98487.11
2019-01-27T02:45:26.882Z,98482.41
2019-01-27T02:47:56.113Z,98475.89
2019-01-27T02:50:25.345Z,98473.00
2019-01-27T02:52:54.577Z,98467.14
2019-01-27T02:55:24.820Z,98457.56
2019-01-27T02:57:54.093Z,98456.80
2019-01-27T03:00:23.470Z,98453.03
2019-01-27T03:02:52.703Z,98457.56
2019-01-27T03:05:23.576Z,98444.71
2019-01-27T03:07:53.775Z,98437.41
2019-01-27T03:10:24.066Z,98426.74
2019-01-27T03:12:53.294Z,98428.87
2019-01-27T03:15:23.202Z,98426.50
2019-01-27T03:17:52.448Z,98423.03
2019-01-27T03:20:21.694Z,98419.41
2019-01-27T03:22:50.926Z,98416.30
2019-01-27T03:25:20.164Z,98412.02
2019-01-27T03:27:50.408Z,98406.38
2019-01-27T03:30:21.208Z,98409.56
2019-01-27T03:32:50.463Z,98400.80
2019-01-27T03:35:19.750Z,98396.77
2019-01-27T03:37:49.106Z,98395.05
2019-01-27T03:40:19.208Z,98391.45
2019-01-27T03:42:50.371Z,98383.41
2019-01-27T03:45:21.168Z,98374.84
2019-01-27T03:47:51.381Z,98375.70
2019-01-27T03:50:22.209Z,98364.20
2019-01-27T03:52:51.454Z,98361.02
2019-01-27T03:55:23.237Z,98358.70
2019-01-27T03:57:52.473Z,98354.08
2019-01-27T04:00:22.744Z,98353.00
2019-01-27T04:02:52.153Z,98345.01
2019-01-27T04:05:21.736Z,98331.31
2019-01-27T04:07:51.033Z,98333.76
2019-01-27T04:10:22.973Z,98325.21
2019-01-27T04:12:53.172Z,98323.31
2019-01-27T04:15:22.557Z,98315.56
2019-01-27T04:17:51.861Z,98316.36
2019-01-27T04:20:22.142Z,98304.86
2019-01-27T04:22:51.490Z,98296.84
2019-01-27T04:25:20.812Z,98294.45
2019-01-27T04:27:51.039Z,98291.77
2019-01-27T04:30:29.340Z,98288.27
2019-01-27T04:32:58.552Z,98289.33
2019-01-27T04:35:27.829Z,98287.23
2019-01-27T04:37:57.067Z,98279.46
2019-01-27T04:40:26.398Z,98283.78
2019-01-27T04:42:55.609Z,98274.66
2019-01-27T04:45:26.494Z,98262.67
2019-01-27T04:47:55.800Z,98266.68
2019-01-27T04:50:25.134Z,98251.51
2019-01-27T04:52:54.376Z,98241.86
2019-01-27T04:55:27.252Z,98244.22
2019-01-27T04:57:56.560Z,98244.80
2019-01-27T05:00:26.865Z,98237.59
2019-01-27T05:03:00.593Z,98237.59
2019-01-27T05:05:29.828Z,98234.41
2019-01-27T05:07:59.046Z,98231.73
2019-01-27T05:10:28.279Z,98225.55
2019-01-27T05:12:57.531Z,98224.24
2019-01-27T05:15:31.189Z,98222.95
2019-01-27T05:18:00.445Z,98219.95
2019-01-27T05:20:29.677Z,98214.91
2019-01-27T05:22:58.920Z,98211.42
2019-01-27T05:25:28.168Z,98206.88
2019-01-27T05:27:58.346Z,98203.42
2019-01-27T05:30:28.604Z,98191.40
2019-01-27T05:32:57.855Z,98193.02
2019-01-27T05:35:28.078Z,98186.60
2019-01-27T05:37:57.335Z,98187.11
2019-01-27T05:40:26.573Z,98192.48
2019-01-27T05:42:55.819Z,98188.22
2019-01-27T05:45:26.062Z,98185.55
2019-01-27T05:47:55.325Z,98178.58
2019-01-27T05:50:24.573Z,98170.02
2019-01-27T05:52:55.736Z,98168.14
2019-01-27T05:55:24.987Z,98166.28
2019-01-27T05:57:54.215Z,98166.81
2019-01-27T06:00:43.653Z,98166.02
2019-01-27T06:03:12.892Z,98159.83
2019-01-27T06:05:42.129Z,98160.11
2019-01-27T06:08:11.388Z,98160.92
2019-01-27T06:10:40.594Z,98154.52
2019-01-27T06:13:09.830Z,98147.82
2019-01-27T06:15:39.063Z,98144.34
2019-01-27T06:18:08.280Z,98143.05
2019-01-27T06:20:37.547Z,98149.98
2019-01-27T06:23:07.756Z,98143.29
2019-01-27T06:25:36.987Z,98138.23
2019-01-27T06:28:06.207Z,98133.45
2019-01-27T06:30:35.461Z,98132.63
2019-01-27T06:33:09.023Z,98131.30
2019-01-27T06:35:38.951Z,98125.67
2019-01-27T06:38:08.204Z,98120.06
2019-01-27T06:40:37.433Z,98115.28
2019-01-27T06:43:06.676Z,98104.55
2019-01-27T06:45:36.856Z,98115.55
2019-01-27T06:48:06.183Z,98107.52
2019-01-27T06:50:35.407Z,98104.00
2019-01-27T06:53:04.929Z,98104.30
2019-01-27T06:55:35.053Z,98093.05
2019-01-27T06:58:04.380Z,98089.31
2019-01-27T07:00:36.221Z,98086.14
2019-01-27T07:03:08.096Z,98083.47
2019-01-27T07:05:44.987Z,98095.22
2019-01-27T07:08:15.882Z,98085.33
2019-01-27T07:10:46.762Z,98091.21
2019-01-27T07:13:32.470Z,98091.23
2019-01-27T07:16:09.142Z,98093.09
2019-01-27T07:18:42.726Z,98090.42
2019-01-27T07:21:16.256Z,98090.98
2019-01-27T07:23:55.924Z,98088.02
2019-01-27T07:26:42.719Z,98090.49
2019-01-27T07:29:29.506Z,98087.77
2019-01-27T07:32:07.340Z,98090.98
2019-01-27T07:34:56.158Z,98087.25
2019-01-27T07:37:39.058Z,98086.17
2019-01-27T07:40:11.712Z,98080.02
2019-01-27T07:42:48.362Z,98076.02
2019-01-27T07:45:19.269Z,98081.63
2019-01-27T07:47:50.227Z,98070.67
2019-01-27T07:50:21.109Z,98068.81
2019-01-27T07:53:08.928Z,98069.62
2019-01-27T07:55:51.390Z,98068.28
2019-01-27T07:58:22.273Z,98066.16
2019-01-27T08:00:53.138Z,98056.81
2019-01-27T08:03:29.977Z,98058.94
2019-01-27T08:06:03.301Z,98049.84
2019-01-27T08:08:37.129Z,98056.54
2019-01-27T08:11:11.116Z,98049.30
2019-01-27T08:13:48.725Z,98052.53
2019-01-27T08:16:23.254Z,98051.19
2019-01-27T08:18:54.112Z,98051.98
2019-01-27T08:21:27.639Z,98052.27
2019-01-27T08:24:02.091Z,98051.74
2019-01-27T08:26:32.963Z,98052.80
2019-01-27T08:29:21.752Z,98045.05
2019-01-27T08:31:55.327Z,98046.62
2019-01-27T08:34:26.211Z,98043.95
2019-01-27T08:36:57.085Z,98050.64
2019-01-27T08:39:37.640Z,98041.56
2019-01-27T08:42:08.597Z,98043.72
2019-01-27T08:44:45.552Z,98030.07
2019-01-27T08:47:14.788Z,98037.55
2019-01-27T08:49:44.060Z,98035.42
2019-01-27T08:52:14.285Z,98031.68
2019-01-27T08:54:43.529Z,98025.52
2019-01-27T08:57:13.705Z,98023.90
2019-01-27T08:59:43.119Z,98021.49
2019-01-27T09:02:13.995Z,98027.66
2019-01-27T09:04:44.865Z,98027.67
2019-01-27T09:07:22.239Z,98020.16
2019-01-27T09:09:56.125Z,98014.29
2019-01-27T09:12:29.719Z,98020.70
2019-01-27T09:15:03.040Z,98008.94
2019-01-27T09:17:33.908Z,98012.95
2019-01-27T09:20:04.966Z,98017.19
2019-01-27T09:22:35.851Z,98007.05
2019-01-27T09:25:17.614Z,98009.98
2019-01-27T09:27:50.875Z,98017.75
2019-01-27T09:30:21.835Z,98012.39
2019-01-27T09:32:53.036Z,98009.18
2019-01-27T09:35:27.524Z,98007.03
2019-01-27T09:37:58.471Z,98006.26
2019-01-27T09:40:44.869Z,97997.41
2019-01-27T09:43:15.752Z,97999.55
2019-01-27T09:45:57.678Z,97996.87
2019-01-27T09:48:32.780Z,97998.45
2019-01-27T09:51:12.457Z,97989.09
2019-01-27T09:53:44.285Z,97997.66
2019-01-27T09:56:23.972Z,97995.52
2019-01-27T09:58:57.330Z,97998.45
2019-01-27T10:01:31.248Z,97995.55
2019-01-27T10:04:05.851Z,97995.00
2019-01-27T10:06:36.721Z,98003.59
2019-01-27T10:09:27.927Z,98010.50
2019-01-27T10:11:59.784Z,98003.02
2019-01-27T10:14:33.753Z,98011.86
2019-01-27T10:17:13.496Z,98006.27
2019-01-27T10:19:48.710Z,97990.73
2019-01-27T10:22:22.640Z,97989.67
2019-01-27T10:25:05.625Z,97993.41
2019-01-27T10:27:43.395Z,97991.02
2019-01-27T10:30:19.518Z,97989.39
2019-01-27T10:32:56.780Z,97985.38
2019-01-27T10:35:42.541Z,97980.84
2019-01-27T10:38:11.636Z,97992.61
2019-01-27T10:40:44.927Z,97986.20
2019-01-27T10:43:29.952Z,97977.36
2019-01-27T10:46:13.594Z,97973.63
2019-01-27T10:48:47.307Z,97969.34
2019-01-27T10:51:20.864Z,97965.05
2019-01-27T10:53:54.428Z,97960.79
2019-01-27T10:56:34.131Z,97962.13
2019-01-27T10:59:05.080Z,97961.31
2019-01-27T11:01:42.052Z,97957.58
2019-01-27T11:04:15.934Z,97960.80
2019-01-27T11:06:56.725Z,97952.75
2019-01-27T11:09:39.263Z,97948.50
2019-01-27T11:12:24.756Z,97953.28
2019-01-27T11:15:01.541Z,97951.17
2019-01-27T11:17:32.468Z,97951.45
2019-01-27T11:20:03.345Z,97954.09
2019-01-27T11:22:34.244Z,97950.29
2019-01-27T11:25:14.341Z,97952.20
2019-01-27T11:27:47.879Z,97949.54
2019-01-27T11:30:19.777Z,97960.73
2019-01-27T11:32:50.657Z,97958.84
2019-01-27T11:35:24.450Z,97952.73
2019-01-27T11:38:06.824Z,97940.45
2019-01-27T11:40:40.102Z,97951.41
2019-01-27T11:43:10.979Z,97945.00
2019-01-27T11:45:50.590Z,97939.64
2019-01-27T11:48:24.380Z,97935.64
2019-01-27T11:50:55.266Z,97947.93
2019-01-27T11:53:24.504Z,97938.57
2019-01-27T11:55:53.763Z,97930.82
2019-01-27T11:58:25.113Z,97925.78
2019-01-27T12:00:55.636Z,97930.82
2019-01-27T12:03:24.890Z,97924.14
2019-01-27T12:05:54.283Z,97909.73
2019-01-27T12:08:23.521Z,97920.69
2019-01-27T12:10:52.762Z,97917.20
2019-01-27T12:13:22.958Z,97908.38
2019-01-27T12:15:54.179Z,97910.25
2019-01-27T12:18:23.420Z,97904.39
2019-01-27T12:20:53.598Z,97903.06
2019-01-27T12:23:23.851Z,97905.46
2019-01-27T12:25:53.072Z,97904.69
2019-01-27T12:28:23.276Z,97900.40
2019-01-27T12:30:52.514Z,97904.15
2019-01-27T12:33:21.844Z,97906.54
2019-01-27T12:35:52.972Z,97901.98
2019-01-27T12:38:22.246Z,97894.78
2019-01-27T12:40:52.403Z,97902.50
2019-01-27T12:43:23.585Z,97897.94
2019-01-27T12:45:52.802Z,97898.69
2019-01-27T12:48:22.066Z,97893.66
2019-01-27T12:50:54.317Z,97895.81
2019-01-27T12:53:25.480Z,97897.44
2019-01-27T12:55:55.734Z,97892.63
2019-01-27T12:58:26.006Z,97895.83
2019-01-27T13:00:55.790Z,97888.09
2019-01-27T13:03:25.985Z,97897.42
2019-01-27T13:05:56.196Z,97892.87
2019-01-27T13:08:27.426Z,97893.12
2019-01-27T13:10:56.673Z,97900.23
2019-01-27T13:13:25.931Z,97893.88
2019-01-27T13:15:55.191Z,97893.34
2019-01-27T13:18:24.441Z,97888.97
2019-01-27T13:20:53.681Z,97896.75
2019-01-27T13:23:22.910Z,97893.03
2019-01-27T13:25:52.174Z,97902.09
2019-01-27T13:28:21.388Z,97898.13
2019-01-27T13:30:50.636Z,97901.08
2019-01-27T13:33:21.859Z,97894.99
2019-01-27T13:35:53.060Z,97897.93
2019-01-27T13:38:22.276Z,97895.69
2019-01-27T13:40:52.590Z,97893.84
2019-01-27T13:43:25.916Z,97895.66
2019-01-27T13:45:55.149Z,97892.52
2019-01-27T13:48:24.382Z,97899.75
2019-01-27T13:50:53.640Z,97904.84
2019-01-27T13:53:24.869Z,97895.24
2019-01-27T13:55:54.151Z,97903.27
2019-01-27T13:58:27.575Z,97901.38
2019-01-27T14:00:56.808Z,97905.13
2019-01-27T14:03:26.058Z,97901.10
2019-01-27T14:05:55.303Z,97902.95
2019-01-27T14:08:24.539Z,97912.30
2019-01-27T14:10:54.779Z,97904.59
2019-01-27T14:13:24.021Z,97905.91
2019-01-27T14:15:53.267Z,97906.41
2019-01-27T14:18:23.510Z,97909.88
2019-01-27T14:20:52.728Z,97908.88
2019-01-27T14:23:22.922Z,97914.41
2019-01-27T14:25:52.163Z,97909.69
2019-01-27T14:28:21.406Z,97914.17
2019-01-27T14:30:50.731Z,97914.45
2019-01-27T14:33:19.961Z,97916.88
2019-01-27T14:35:50.139Z,97922.20
2019-01-27T14:38:19.398Z,97921.61
2019-01-27T14:40:48.646Z,97924.59
2019-01-27T14:43:18.856Z,97927.52
2019-01-27T14:45:48.100Z,97932.95
2019-01-27T14:48:17.338Z,97944.63
2019-01-27T14:50:49.131Z,97947.12
2019-01-27T14:53:18.371Z,97963.95
2019-01-27T14:55:47.851Z,97958.64
2019-01-27T14:58:17.097Z,97960.50
2019-01-27T15:00:48.289Z,97970.69
2019-01-27T15:03:17.551Z,97972.22
2019-01-27T15:05:46.837Z,97976.83
2019-01-27T15:08:16.149Z,97986.19
2019-01-27T15:10:46.290Z,97994.23
2019-01-27T15:13:15.716Z,97990.46
2019-01-27T15:15:44.949Z,97997.69
2019-01-27T15:18:14.205Z,98006.80
2019-01-27T15:20:47.186Z,98013.40
2019-01-27T15:23:16.438Z,98016.60
2019-01-27T15:25:45.673Z,98031.84
2019-01-27T15:28:14.931Z,98029.33
2019-01-27T15:30:44.222Z,98044.50
2019-01-27T15:33:13.453Z,98050.08
2019-01-27T15:35:42.697Z,98058.77
2019-01-27T15:38:16.084Z,98053.83
2019-01-27T15:40:45.379Z,98069.85
2019-01-27T15:43:16.611Z,98070.43
2019-01-27T15:45:45.858Z,98080.16
2019-01-27T15:48:15.172Z,98089.02
2019-01-27T15:50:44.431Z,98095.09
2019-01-27T15:53:13.736Z,98098.64
2019-01-27T15:55:43.939Z,98099.13
2019-01-27T15:58:15.098Z,98113.36
2019-01-27T16:00:44.337Z,98113.63
2019-01-27T16:03:13.577Z,98118.76
2019-01-27T16:05:42.894Z,98127.45
2019-01-27T16:08:12.141Z,98125.42
2019-01-27T16:10:41.378Z,98132.31
2019-01-27T16:13:10.880Z,98141.97
2019-01-27T16:15:40.130Z,98152.77
2019-01-27T16:18:11.355Z,98159.16
2019-01-27T16:20:41.544Z,98165.25
2019-01-27T16:23:21.198Z,98166.28
2019-01-27T16:25:52.434Z,98175.30
2019-01-27T16:28:21.689Z,98177.84
2019-01-27T16:30:55.066Z,98187.31
2019-01-27T16:33:25.955Z,98190.42
2019-01-27T16:35:56.208Z,98197.38
2019-01-27T16:38:25.483Z,98205.07
2019-01-27T16:40:56.663Z,98204.73
2019-01-27T16:43:25.913Z,98203.95
2019-01-27T16:45:55.160Z,98204.08
2019-01-27T16:48:24.396Z,98215.47
2019-01-27T16:50:53.683Z,98218.88
2019-01-27T16:53:26.036Z,98210.48
2019-01-27T16:55:56.238Z,98228.62
2019-01-27T16:58:26.471Z,98222.82
2019-01-27T17:00:55.798Z,98233.80
2019-01-27T17:03:25.065Z,98234.34
2019-01-27T17:05:54.304Z,98237.61
2019-01-27T17:08:23.703Z,98242.46
2019-01-27T17:10:52.968Z,98241.81
2019-01-27T17:13:23.176Z,98251.39
2019-01-27T17:15:52.428Z,98257.11
2019-01-27T17:18:21.655Z,98263.63
2019-01-27T17:20:51.897Z,98265.16
2019-01-27T17:23:22.132Z,98267.86
2019-01-27T17:25:53.623Z,98273.20
2019-01-27T17:28:22.339Z,98283.35
2019-01-27T17:30:51.569Z,98278.92
2019-01-27T17:33:21.803Z,98277.77
2019-01-27T17:35:51.122Z,98288.81
2019-01-27T17:38:20.445Z,98280.20
2019-01-27T17:40:49.702Z,98279.00
2019-01-27T17:43:18.941Z,98281.62
2019-01-27T17:45:49.111Z,98288.62
2019-01-27T17:48:19.372Z,98292.27
2019-01-27T17:50:52.649Z,98290.57
2019-01-27T17:53:21.874Z,98295.27
2019-01-27T17:55:51.123Z,98300.63
2019-01-27T17:58:34.996Z,98305.06
2019-01-27T18:01:19.414Z,98311.91
2019-01-27T18:03:54.279Z,98313.79
2019-01-27T18:06:31.789Z,98317.77
2019-01-27T18:09:14.351Z,98329.81
2019-01-27T18:11:46.893Z,98324.75
2019-01-27T18:14:17.765Z,98335.54
2019-01-27T18:16:47.083Z,98331.53
2019-01-27T18:19:18.006Z,98348.83
2019-01-27T18:21:47.272Z,98339.20
2019-01-27T18:24:16.526Z,98353.06
2019-01-27T18:26:46.756Z,98350.22
2019-01-27T18:29:16.973Z,98358.37
2019-01-27T18:31:46.247Z,98364.63
2019-01-27T18:34:16.490Z,98364.69
2019-01-27T18:36:45.754Z,98367.77
2019-01-27T18:39:16.087Z,98367.95
2019-01-27T18:41:45.309Z,98377.89
2019-01-27T18:44:14.638Z,98369.72
2019-01-27T18:46:43.899Z,98375.82
2019-01-27T18:49:13.114Z,98380.23
2019-01-27T18:51:42.354Z,98380.28
2019-01-27T18:54:14.183Z,98388.37
2019-01-27T18:56:50.984Z,98383.70
2019-01-27T18:59:42.616Z,98386.06
2019-01-27T19:02:16.192Z,98388.83
2019-01-27T19:04:47.058Z,98387.55
2019-01-27T19:07:33.842Z,98391.66
2019-01-27T19:10:11.144Z,98393.30
2019-01-27T19:12:58.224Z,98390.02
2019-01-27T19:15:32.025Z,98386.70
2019-01-27T19:18:08.315Z,98391.72
2019-01-27T19:20:48.189Z,98385.13
2019-01-27T19:23:35.072Z,98389.59
2019-01-27T19:26:10.621Z,98389.79
2019-01-27T19:28:44.211Z,98393.73
2019-01-27T19:31:16.050Z,98401.33
2019-01-27T19:33:52.389Z,98404.12
2019-01-27T19:36:38.114Z,98413.03
2019-01-27T19:39:13.361Z,98409.39
2019-01-27T19:41:56.172Z,98409.23
2019-01-27T19:44:29.964Z,98409.05
2019-01-27T19:47:00.918Z,98415.39
2019-01-27T19:49:50.723Z,98422.47
2019-01-27T19:52:29.570Z,98422.28
2019-01-27T19:55:00.467Z,98421.78
2019-01-27T19:57:31.477Z,98427.48
2019-01-27T20:00:09.311Z,98424.61
2019-01-27T20:02:56.260Z,98431.53
2019-01-27T20:05:39.141Z,98431.09
2019-01-27T20:08:10.116Z,98438.66
2019-01-27T20:10:42.884Z,98432.92
2019-01-27T20:13:14.724Z,98431.11
2019-01-27T20:15:54.482Z,98436.14
2019-01-27T20:18:27.809Z,98437.83
2019-01-27T20:21:04.345Z,98440.42
2019-01-27T20:23:38.914Z,98446.23
2019-01-27T20:26:09.818Z,98442.34
2019-01-27T20:28:47.335Z,98453.29
2019-01-27T20:31:18.217Z,98444.75
2019-01-27T20:33:52.008Z,98446.00
2019-01-27T20:36:26.871Z,98441.22
2019-01-27T20:39:00.795Z,98445.98
2019-01-27T20:41:49.642Z,98435.38
2019-01-27T20:44:24.399Z,98437.58
2019-01-27T20:47:07.367Z,98447.30
2019-01-27T20:49:44.168Z,98431.34
2019-01-27T20:52:16.009Z,98429.89
2019-01-27T20:54:46.890Z,98437.84
2019-01-27T20:57:17.760Z,98442.33
2019-01-27T20:59:51.282Z,98443.74
2019-01-27T21:02:31.645Z,98432.20
2019-01-27T21:05:05.563Z,98424.52
2019-01-27T21:07:38.904Z,98424.84
2019-01-27T21:10:18.242Z,98430.30
2019-01-27T21:13:00.952Z,98436.35
2019-01-27T21:15:37.605Z,98437.78
2019-01-27T21:18:08.775Z,98436.26
2019-01-27T21:20:38.012Z,98438.19
2019-01-27T21:23:07.277Z,98435.27
2019-01-27T21:25:36.531Z,98438.59
2019-01-27T21:28:06.062Z,98431.86
2019-01-27T21:30:35.306Z,98434.36
2019-01-27T21:33:04.554Z,98426.48
2019-01-27T21:35:33.781Z,98422.63
2019-01-27T21:38:03.041Z,98422.87
2019-01-27T21:40:33.221Z,98425.73
2019-01-27T21:43:02.475Z,98424.59
2019-01-27T21:45:32.628Z,98417.86
2019-01-27T21:48:02.894Z,98425.41
2019-01-27T21:50:32.132Z,98421.78
2019-01-27T21:53:02.285Z,98428.97
2019-01-27T21:55:32.506Z,98423.41
2019-01-27T21:58:01.737Z,98420.73
2019-01-27T22:00:31.937Z,98419.79
2019-01-27T22:03:01.181Z,98417.90
2019-01-27T22:05:30.421Z,98419.00
2019-01-27T22:07:59.640Z,98416.31
2019-01-27T22:10:28.921Z,98423.42
2019-01-27T22:12:58.140Z,98415.34
2019-01-27T22:15:27.405Z,98413.70
2019-01-27T22:17:57.633Z,98411.62
2019-01-27T22:20:31.544Z,98411.08
2019-01-27T22:23:01.776Z,98415.71
2019-01-27T22:25:31.044Z,98401.72
2019-01-27T22:28:00.291Z,98411.72
2019-01-27T22:30:29.531Z,98403.47
2019-01-27T22:32:58.767Z,98404.46
2019-01-27T22:35:29.933Z,98402.84
2019-01-27T22:37:59.172Z,98400.39
2019-01-27T22:40:28.407Z,98408.03
2019-01-27T22:42:57.632Z,98405.83
2019-01-27T22:45:26.889Z,98408.69
2019-01-27T22:47:56.134Z,98402.81
2019-01-27T22:50:25.356Z,98398.95
2019-01-27T22:52:54.599Z,98402.26
2019-01-27T22:55:23.840Z,98405.73
2019-01-27T22:57:54.098Z,98397.23
2019-01-27T23:00:34.976Z,98403.50
2019-01-27T23:03:04.675Z,98401.67
2019-01-27T23:05:33.932Z,98392.84
2019-01-27T23:08:03.184Z,98392.89
2019-01-27T23:10:32.435Z,98391.10
2019-01-27T23:13:01.702Z,98392.91
2019-01-27T23:15:31.004Z,98392.12
2019-01-27T23:18:00.266Z,98395.69
2019-01-27T23:20:30.439Z,98393.74
2019-01-27T23:23:00.681Z,98385.89
2019-01-27T23:25:29.922Z,98394.50
2019-01-27T23:27:59.180Z,98386.98
2019-01-27T23:30:28.444Z,98387.30
2019-01-27T23:32:57.692Z,98390.06
2019-01-27T23:35:26.958Z,98385.37
2019-01-27T23:37:56.278Z,98387.14
2019-01-27T23:40:25.547Z,98386.72
2019-01-27T23:42:54.767Z,98385.52
2019-01-27T23:45:24.990Z,98383.98
2019-01-27T23:47:54.225Z,98384.19
2019-01-27T23:50:23.471Z,98384.61
2019-01-27T23:52:52.698Z,98389.49
2019-01-27T23:55:21.955Z,98384.25
2019-01-27T23:57:51.187Z,98377.72
